sensor_id;sensor_type;location;lat;lon;timestamp;pressure;altitude;pressure_sealevel;temperature;humidity
48796;BME280;34607;48.520;-1.330;2022-12-01T09:31:39;101304.91;;;4.22;100.00
48796;BME280;34607;48.520;-1.330;2022-12-01T09:34:09;101309.59;;;4.29;100.00
48796;BME280;34607;48.520;-1.330;2022-12-01T09:36:37;101291.63;;;4.29;100.00
48796;BME280;34607;48.520;-1.330;2022-12-01T09:39:07;101307.03;;;4.44;100.00
48796;BME280;34607;48.520;-1.330;2022-12-01T09:41:36;101312.75;;;4.55;100.00
48796;BME280;34607;48.520;-1.330;2022-12-01T09:44:12;101309.63;;;4.61;100.00
48796;BME280;34607;48.520;-1.330;2022-12-01T09:46:49;101309.91;;;4.65;100.00
48796;BME280;34607;48.520;-1.330;2022-12-01T09:49:34;101307.78;;;4.73;100.00
48796;BME280;34607;48.520;-1.330;2022-12-01T09:52:04;101303.03;;;4.81;100.00
48796;BME280;34607;48.520;-1.330;2022-12-01T09:54:31;101304.53;;;4.92;100.00
48796;BME280;34607;48.520;-1.330;2022-12-01T09:56:58;101306.53;;;4.98;100.00
48796;BME280;34607;48.520;-1.330;2022-12-01T09:59:31;101302.88;;;5.09;100.00
48796;BME280;34607;48.520;-1.330;2022-12-01T10:02:02;101304.78;;;5.13;100.00
48796;BME280;34607;48.520;-1.330;2022-12-01T10:04:34;101309.78;;;5.27;100.00
48796;BME280;34607;48.520;-1.330;2022-12-01T10:07:04;101304.09;;;5.32;100.00
48796;BME280;34607;48.520;-1.330;2022-12-01T10:09:37;101309.88;;;5.44;100.00
48796;BME280;34607;48.520;-1.330;2022-12-01T10:12:13;101314.75;;;5.56;100.00
48796;BME280;34607;48.520;-1.330;2022-12-01T10:14:43;101304.75;;;5.61;100.00
48796;BME280;34607;48.520;-1.330;2022-12-01T10:17:20;101302.34;;;5.64;100.00
48796;BME280;34607;48.520;-1.330;2022-12-01T10:19:57;101300.72;;;5.66;100.00
48796;BME280;34607;48.520;-1.330;2022-12-01T10:25:42;101306.88;;;5.86;100.00
48796;BME280;34607;48.520;-1.330;2022-12-01T10:28:39;101285.56;;;5.89;100.00
48796;BME280;34607;48.520;-1.330;2022-12-01T10:31:16;101303.50;;;6.04;100.00
48796;BME280;34607;48.520;-1.330;2022-12-01T10:33:56;101303.50;;;6.04;100.00
48796;BME280;34607;48.520;-1.330;2022-12-01T10:36:25;101301.97;;;6.07;100.00
48796;BME280;34607;48.520;-1.330;2022-12-01T10:38:53;101304.03;;;6.14;100.00
48796;BME280;34607;48.520;-1.330;2022-12-01T10:41:21;101301.53;;;6.16;100.00
48796;BME280;34607;48.520;-1.330;2022-12-01T10:43:53;101295.38;;;6.12;100.00
48796;BME280;34607;48.520;-1.330;2022-12-01T10:46:31;101300.00;;;6.19;100.00
48796;BME280;34607;48.520;-1.330;2022-12-01T10:49:08;101290.56;;;6.20;100.00
48796;BME280;34607;48.520;-1.330;2022-12-01T10:51:49;101293.53;;;6.28;100.00
48796;BME280;34607;48.520;-1.330;2022-12-01T10:54:17;101234.00;;;6.02;100.00
48796;BME280;34607;48.520;-1.330;2022-12-01T10:56:47;101291.63;;;6.42;100.00
48796;BME280;34607;48.520;-1.330;2022-12-01T10:59:24;101287.53;;;6.45;100.00
48796;BME280;34607;48.520;-1.330;2022-12-01T11:01:52;101287.69;;;6.48;100.00
48796;BME280;34607;48.520;-1.330;2022-12-01T11:04:39;101283.09;;;6.61;100.00
48796;BME280;34607;48.520;-1.330;2022-12-01T11:07:19;101275.56;;;6.83;100.00
48796;BME280;34607;48.520;-1.330;2022-12-01T11:09:58;101254.66;;;6.95;100.00
48796;BME280;34607;48.520;-1.330;2022-12-01T11:12:27;101273.19;;;7.25;100.00
48796;BME280;34607;48.520;-1.330;2022-12-01T11:14:55;101278.00;;;7.57;100.00
48796;BME280;34607;48.520;-1.330;2022-12-01T11:17:30;101278.38;;;7.85;100.00
48796;BME280;34607;48.520;-1.330;2022-12-01T11:19:58;101271.00;;;7.95;100.00
48796;BME280;34607;48.520;-1.330;2022-12-01T11:22:43;101264.84;;;8.12;100.00
48796;BME280;34607;48.520;-1.330;2022-12-01T11:25:19;101266.97;;;8.22;100.00
48796;BME280;34607;48.520;-1.330;2022-12-01T11:27:49;101264.00;;;8.34;100.00
48796;BME280;34607;48.520;-1.330;2022-12-01T11:30:21;101262.06;;;8.29;100.00
48796;BME280;34607;48.520;-1.330;2022-12-01T11:32:51;101252.75;;;8.32;100.00
48796;BME280;34607;48.520;-1.330;2022-12-01T11:35:23;101252.50;;;8.05;100.00
48796;BME280;34607;48.520;-1.330;2022-12-01T11:37:52;101237.41;;;7.93;100.00
48796;BME280;34607;48.520;-1.330;2022-12-01T11:40:23;101249.38;;;8.12;100.00
48796;BME280;34607;48.520;-1.330;2022-12-01T11:42:52;101234.63;;;8.31;100.00
48796;BME280;34607;48.520;-1.330;2022-12-01T11:45:27;101235.66;;;8.55;100.00
48796;BME280;34607;48.520;-1.330;2022-12-01T11:48:03;101232.47;;;8.85;100.00
48796;BME280;34607;48.520;-1.330;2022-12-01T11:50:35;101233.53;;;9.14;99.64
48796;BME280;34607;48.520;-1.330;2022-12-01T11:53:03;101233.22;;;9.05;97.38
48796;BME280;34607;48.520;-1.330;2022-12-01T11:55:50;101228.38;;;9.14;98.68
48796;BME280;34607;48.520;-1.330;2022-12-01T11:58:17;101236.53;;;9.51;98.41
48796;BME280;34607;48.520;-1.330;2022-12-01T12:00:47;101227.63;;;9.67;97.77
48796;BME280;34607;48.520;-1.330;2022-12-01T12:03:19;101236.34;;;9.96;97.22
48796;BME280;34607;48.520;-1.330;2022-12-01T12:05:57;101221.88;;;10.01;95.86
48796;BME280;34607;48.520;-1.330;2022-12-01T12:08:36;101222.56;;;9.96;94.56
48796;BME280;34607;48.520;-1.330;2022-12-01T12:11:13;101211.41;;;9.98;95.83
48796;BME280;34607;48.520;-1.330;2022-12-01T12:14:12;101222.53;;;10.23;95.38
48796;BME280;34607;48.520;-1.330;2022-12-01T12:16:55;101219.59;;;10.38;94.60
48796;BME280;34607;48.520;-1.330;2022-12-01T12:19:51;101206.28;;;10.54;93.93
48796;BME280;34607;48.520;-1.330;2022-12-01T12:22:29;101213.25;;;10.57;92.74
48796;BME280;34607;48.520;-1.330;2022-12-01T12:25:14;101211.47;;;10.54;92.92
48796;BME280;34607;48.520;-1.330;2022-12-01T12:27:51;101204.06;;;10.66;92.73
48796;BME280;34607;48.520;-1.330;2022-12-01T12:30:27;101198.47;;;10.81;92.38
48796;BME280;34607;48.520;-1.330;2022-12-01T12:36:07;101195.53;;;10.71;91.23
48796;BME280;34607;48.520;-1.330;2022-12-01T12:38:53;101192.78;;;10.64;91.29
48796;BME280;34607;48.520;-1.330;2022-12-01T12:41:32;101178.78;;;10.58;91.39
48796;BME280;34607;48.520;-1.330;2022-12-01T12:44:29;101196.84;;;10.56;91.45
48796;BME280;34607;48.520;-1.330;2022-12-01T12:47:05;101192.78;;;10.64;91.59
48796;BME280;34607;48.520;-1.330;2022-12-01T12:49:40;101182.28;;;10.60;91.33
48796;BME280;34607;48.520;-1.330;2022-12-01T12:52:12;101183.53;;;10.44;91.19
48796;BME280;34607;48.520;-1.330;2022-12-01T12:54:46;101175.81;;;10.45;91.61
48796;BME280;34607;48.520;-1.330;2022-12-01T12:57:20;101184.03;;;10.32;90.52
48796;BME280;34607;48.520;-1.330;2022-12-01T12:59:53;101175.06;;;10.22;90.84
48796;BME280;34607;48.520;-1.330;2022-12-01T13:02:27;101170.69;;;10.20;91.15
48796;BME280;34607;48.520;-1.330;2022-12-01T13:05:01;101166.53;;;10.25;91.08
48796;BME280;34607;48.520;-1.330;2022-12-01T13:07:36;101169.78;;;10.19;90.09
48796;BME280;34607;48.520;-1.330;2022-12-01T13:10:18;101159.13;;;10.08;90.22
48796;BME280;34607;48.520;-1.330;2022-12-01T13:12:55;101159.13;;;10.08;90.35
48796;BME280;34607;48.520;-1.330;2022-12-01T13:15:24;101150.66;;;10.14;90.13
48796;BME280;34607;48.520;-1.330;2022-12-01T13:17:53;101143.28;;;10.26;89.64
48796;BME280;34607;48.520;-1.330;2022-12-01T13:20:24;101155.66;;;10.35;89.47
48796;BME280;34607;48.520;-1.330;2022-12-01T13:22:54;101143.38;;;10.29;89.11
48796;BME280;34607;48.520;-1.330;2022-12-01T13:25:26;101138.84;;;10.22;88.89
48796;BME280;34607;48.520;-1.330;2022-12-01T13:27:56;101124.06;;;10.18;89.41
48796;BME280;34607;48.520;-1.330;2022-12-01T13:30:25;101135.53;;;10.28;89.10
48796;BME280;34607;48.520;-1.330;2022-12-01T13:32:59;101128.59;;;10.25;88.78
48796;BME280;34607;48.520;-1.330;2022-12-01T13:35:29;101117.97;;;10.18;88.74
48796;BME280;34607;48.520;-1.330;2022-12-01T13:38:18;101120.91;;;10.00;87.55
48796;BME280;34607;48.520;-1.330;2022-12-01T13:40:48;101103.97;;;9.82;88.56
48796;BME280;34607;48.520;-1.330;2022-12-01T13:43:17;101119.44;;;9.81;88.78
48796;BME280;34607;48.520;-1.330;2022-12-01T13:45:47;101123.06;;;9.86;89.00
48796;BME280;34607;48.520;-1.330;2022-12-01T13:48:28;101118.84;;;9.62;87.10
48796;BME280;34607;48.520;-1.330;2022-12-01T13:51:07;101121.97;;;9.52;87.58
48796;BME280;34607;48.520;-1.330;2022-12-01T13:53:35;101118.63;;;9.54;87.89
48796;BME280;34607;48.520;-1.330;2022-12-01T13:56:34;101120.72;;;9.41;86.31
48796;BME280;34607;48.520;-1.330;2022-12-01T13:59:02;101114.72;;;9.42;86.39
48796;BME280;34607;48.520;-1.330;2022-12-01T14:01:45;101114.38;;;9.31;85.76
48796;BME280;34607;48.520;-1.330;2022-12-01T14:04:29;101103.94;;;9.28;85.23
48796;BME280;34607;48.520;-1.330;2022-12-01T14:07:20;101102.94;;;9.24;84.65
48796;BME280;34607;48.520;-1.330;2022-12-01T14:09:49;101091.00;;;9.28;85.03
48796;BME280;34607;48.520;-1.330;2022-12-01T14:12:22;101095.97;;;9.22;84.69
48796;BME280;34607;48.520;-1.330;2022-12-01T14:14:52;101094.16;;;9.19;84.83
48796;BME280;34607;48.520;-1.330;2022-12-01T14:17:26;101088.59;;;9.07;83.94
48796;BME280;34607;48.520;-1.330;2022-12-01T14:19:54;101088.66;;;9.08;84.33
48796;BME280;34607;48.520;-1.330;2022-12-01T14:22:32;101088.53;;;9.05;83.81
48796;BME280;34607;48.520;-1.330;2022-12-01T14:25:00;101086.81;;;9.06;84.00
48796;BME280;34607;48.520;-1.330;2022-12-01T14:27:36;101085.84;;;9.02;83.67
48796;BME280;34607;48.520;-1.330;2022-12-01T14:33:43;101096.13;;;8.76;81.09
48796;BME280;34607;48.520;-1.330;2022-12-01T14:36:20;101089.94;;;8.71;82.79
48796;BME280;34607;48.520;-1.330;2022-12-01T14:38:50;101092.50;;;8.71;82.44
48796;BME280;34607;48.520;-1.330;2022-12-01T14:41:21;101082.19;;;8.71;83.03
48796;BME280;34607;48.520;-1.330;2022-12-01T14:43:55;101069.75;;;8.61;82.83
48796;BME280;34607;48.520;-1.330;2022-12-01T14:49:20;101080.41;;;8.70;83.54
48796;BME280;34607;48.520;-1.330;2022-12-01T14:51:51;101085.50;;;8.67;83.49
48796;BME280;34607;48.520;-1.330;2022-12-01T14:54:23;101081.75;;;8.59;83.77
48796;BME280;34607;48.520;-1.330;2022-12-01T14:56:53;101082.38;;;8.53;83.69
48796;BME280;34607;48.520;-1.330;2022-12-01T14:59:25;101079.84;;;8.55;84.15
48796;BME280;34607;48.520;-1.330;2022-12-01T15:01:54;101082.13;;;8.46;83.78
48796;BME280;34607;48.520;-1.330;2022-12-01T15:04:22;101086.25;;;8.42;83.86
48796;BME280;34607;48.520;-1.330;2022-12-01T15:06:53;101083.56;;;8.39;84.25
48796;BME280;34607;48.520;-1.330;2022-12-01T15:09:22;101083.50;;;8.37;83.90
48796;BME280;34607;48.520;-1.330;2022-12-01T15:11:52;101080.97;;;8.39;84.15
48796;BME280;34607;48.520;-1.330;2022-12-01T15:14:29;101074.59;;;8.29;84.22
48796;BME280;34607;48.520;-1.330;2022-12-01T15:16:57;101077.16;;;8.29;83.89
48796;BME280;34607;48.520;-1.330;2022-12-01T15:19:30;101078.81;;;8.27;84.12
48796;BME280;34607;48.520;-1.330;2022-12-01T15:22:00;101050.22;;;7.98;83.55
48796;BME280;34607;48.520;-1.330;2022-12-01T15:24:28;101084.91;;;8.06;82.70
48796;BME280;34607;48.520;-1.330;2022-12-01T15:26:57;101088.34;;;8.05;83.43
48796;BME280;34607;48.520;-1.330;2022-12-01T15:29:27;101070.84;;;7.98;83.70
48796;BME280;34607;48.520;-1.330;2022-12-01T15:31:56;101091.00;;;8.09;83.82
48796;BME280;34607;48.520;-1.330;2022-12-01T15:34:29;101083.06;;;8.02;83.98
48796;BME280;34607;48.520;-1.330;2022-12-01T15:36:58;101087.22;;;7.99;84.26
48796;BME280;34607;48.520;-1.330;2022-12-01T15:39:31;101087.97;;;7.96;84.50
48796;BME280;34607;48.520;-1.330;2022-12-01T15:41:59;101092.25;;;7.96;84.71
48796;BME280;34607;48.520;-1.330;2022-12-01T15:44:31;101087.84;;;7.93;84.66
48796;BME280;34607;48.520;-1.330;2022-12-01T15:46:58;101092.66;;;7.84;85.04
48796;BME280;34607;48.520;-1.330;2022-12-01T15:49:27;101082.22;;;7.81;84.99
48796;BME280;34607;48.520;-1.330;2022-12-01T15:52:08;101088.22;;;7.80;85.20
48796;BME280;34607;48.520;-1.330;2022-12-01T15:54:36;101089.78;;;7.76;85.62
48796;BME280;34607;48.520;-1.330;2022-12-01T15:57:04;101086.09;;;7.69;85.54
48796;BME280;34607;48.520;-1.330;2022-12-01T15:59:36;101091.84;;;7.64;85.90
48796;BME280;34607;48.520;-1.330;2022-12-01T16:02:06;101082.31;;;7.61;86.21
48796;BME280;34607;48.520;-1.330;2022-12-01T16:04:43;101075.72;;;7.47;85.94
48796;BME280;34607;48.520;-1.330;2022-12-01T16:07:10;101076.34;;;7.41;86.15
48796;BME280;34607;48.520;-1.330;2022-12-01T16:09:40;101084.06;;;7.41;86.39
48796;BME280;34607;48.520;-1.330;2022-12-01T16:12:24;101084.78;;;7.37;86.23
48796;BME280;34607;48.520;-1.330;2022-12-01T16:15:11;101080.13;;;7.28;86.29
48796;BME280;34607;48.520;-1.330;2022-12-01T16:17:43;101076.59;;;7.26;87.00
48796;BME280;34607;48.520;-1.330;2022-12-01T16:20:20;101086.66;;;7.20;87.08
48796;BME280;34607;48.520;-1.330;2022-12-01T16:22:51;101080.16;;;7.09;87.31
48796;BME280;34607;48.520;-1.330;2022-12-01T16:25:27;101084.72;;;6.95;87.56
48796;BME280;34607;48.520;-1.330;2022-12-01T16:27:56;101099.59;;;6.81;87.76
48796;BME280;34607;48.520;-1.330;2022-12-01T16:30:26;101100.94;;;6.73;88.03
48796;BME280;34607;48.520;-1.330;2022-12-01T16:33:03;101089.69;;;6.71;88.06
48796;BME280;34607;48.520;-1.330;2022-12-01T16:35:32;101086.84;;;6.65;88.29
48796;BME280;34607;48.520;-1.330;2022-12-01T16:38:00;101093.47;;;6.60;88.34
48796;BME280;34607;48.520;-1.330;2022-12-01T16:40:30;101099.25;;;6.54;88.32
48796;BME280;34607;48.520;-1.330;2022-12-01T16:42:57;101097.34;;;6.50;88.43
48796;BME280;34607;48.520;-1.330;2022-12-01T16:45:26;101096.44;;;6.49;88.62
48796;BME280;34607;48.520;-1.330;2022-12-01T16:47:53;101086.69;;;6.42;88.60
48796;BME280;34607;48.520;-1.330;2022-12-01T16:50:21;101085.63;;;6.37;88.88
48796;BME280;34607;48.520;-1.330;2022-12-01T16:52:48;101086.38;;;6.34;88.95
48796;BME280;34607;48.520;-1.330;2022-12-01T16:55:36;101073.53;;;6.16;88.73
48796;BME280;34607;48.520;-1.330;2022-12-01T16:58:04;101088.25;;;6.19;89.60
48796;BME280;34607;48.520;-1.330;2022-12-01T17:00:33;101085.59;;;6.17;89.43
48796;BME280;34607;48.520;-1.330;2022-12-01T17:03:00;101098.31;;;6.14;89.62
48796;BME280;34607;48.520;-1.330;2022-12-01T17:05:27;101097.22;;;6.09;89.62
48796;BME280;34607;48.520;-1.330;2022-12-01T17:07:55;101097.91;;;6.05;89.66
48796;BME280;34607;48.520;-1.330;2022-12-01T17:10:22;101097.75;;;6.02;89.75
48796;BME280;34607;48.520;-1.330;2022-12-01T17:12:50;101091.78;;;6.03;89.79
48796;BME280;34607;48.520;-1.330;2022-12-01T17:15:17;101096.72;;;5.98;89.28
48796;BME280;34607;48.520;-1.330;2022-12-01T17:17:45;101097.16;;;5.90;89.63
48796;BME280;34607;48.520;-1.330;2022-12-01T17:20:13;101100.34;;;5.86;89.79
48796;BME280;34607;48.520;-1.330;2022-12-01T17:22:41;101089.06;;;5.82;89.57
48796;BME280;34607;48.520;-1.330;2022-12-01T17:25:08;101098.38;;;5.80;90.01
48796;BME280;34607;48.520;-1.330;2022-12-01T17:27:36;101090.59;;;5.78;90.00
48796;BME280;34607;48.520;-1.330;2022-12-01T17:30:04;101104.41;;;5.80;89.88
48796;BME280;34607;48.520;-1.330;2022-12-01T17:32:31;101104.25;;;5.77;90.24
48796;BME280;34607;48.520;-1.330;2022-12-01T17:35:00;101102.28;;;5.72;90.05
48796;BME280;34607;48.520;-1.330;2022-12-01T17:37:27;101106.38;;;5.68;90.25
48796;BME280;34607;48.520;-1.330;2022-12-01T17:39:54;101108.81;;;5.65;90.68
48796;BME280;34607;48.520;-1.330;2022-12-01T17:42:21;101118.28;;;5.66;90.66
48796;BME280;34607;48.520;-1.330;2022-12-01T17:44:48;101120.69;;;5.63;90.43
48796;BME280;34607;48.520;-1.330;2022-12-01T17:47:15;101121.06;;;5.53;91.26
48796;BME280;34607;48.520;-1.330;2022-12-01T17:49:43;101118.50;;;5.53;91.18
48796;BME280;34607;48.520;-1.330;2022-12-01T17:52:13;101124.56;;;5.55;91.29
48796;BME280;34607;48.520;-1.330;2022-12-01T17:54:40;101126.19;;;5.53;91.58
48796;BME280;34607;48.520;-1.330;2022-12-01T17:57:07;101124.66;;;5.56;91.37
48796;BME280;34607;48.520;-1.330;2022-12-01T17:59:34;101126.13;;;5.51;91.27
48796;BME280;34607;48.520;-1.330;2022-12-01T18:02:03;101102.16;;;5.34;91.20
48796;BME280;34607;48.520;-1.330;2022-12-01T18:04:30;101134.41;;;5.46;91.31
48796;BME280;34607;48.520;-1.330;2022-12-01T18:06:58;101137.69;;;5.43;91.41
48796;BME280;34607;48.520;-1.330;2022-12-01T18:09:26;101143.56;;;5.40;91.65
48796;BME280;34607;48.520;-1.330;2022-12-01T18:11:54;101121.16;;;5.20;91.73
48796;BME280;34607;48.520;-1.330;2022-12-01T18:14:21;101134.41;;;5.11;91.88
48796;BME280;34607;48.520;-1.330;2022-12-01T18:16:48;101156.56;;;5.09;92.31
48796;BME280;34607;48.520;-1.330;2022-12-01T18:19:16;101155.19;;;4.99;92.80
48796;BME280;34607;48.520;-1.330;2022-12-01T18:21:43;101152.78;;;5.02;92.90
48796;BME280;34607;48.520;-1.330;2022-12-01T18:24:10;101144.50;;;4.92;93.00
48796;BME280;34607;48.520;-1.330;2022-12-01T18:26:39;101153.66;;;4.86;93.16
48796;BME280;34607;48.520;-1.330;2022-12-01T18:29:10;101134.44;;;4.78;93.49
48796;BME280;34607;48.520;-1.330;2022-12-01T18:31:38;101144.28;;;4.87;93.56
48796;BME280;34607;48.520;-1.330;2022-12-01T18:34:05;101145.66;;;4.80;93.69
48796;BME280;34607;48.520;-1.330;2022-12-01T18:36:35;101147.34;;;4.80;94.14
48796;BME280;34607;48.520;-1.330;2022-12-01T18:39:04;101119.59;;;4.56;94.35
48796;BME280;34607;48.520;-1.330;2022-12-01T18:41:33;101141.88;;;4.74;94.78
48796;BME280;34607;48.520;-1.330;2022-12-01T18:44:01;101143.66;;;4.75;94.60
48796;BME280;34607;48.520;-1.330;2022-12-01T18:46:28;101152.31;;;4.77;94.65
48796;BME280;34607;48.520;-1.330;2022-12-01T18:48:56;101142.91;;;4.77;94.42
48796;BME280;34607;48.520;-1.330;2022-12-01T18:51:27;101145.22;;;4.73;94.67
48796;BME280;34607;48.520;-1.330;2022-12-01T18:53:55;101139.53;;;4.62;95.29
48796;BME280;34607;48.520;-1.330;2022-12-01T18:56:22;101141.78;;;4.56;95.14
48796;BME280;34607;48.520;-1.330;2022-12-01T18:58:53;101146.91;;;4.56;95.69
48796;BME280;34607;48.520;-1.330;2022-12-01T19:01:23;101151.16;;;4.55;96.00
48796;BME280;34607;48.520;-1.330;2022-12-01T19:03:52;101155.09;;;4.65;95.93
48796;BME280;34607;48.520;-1.330;2022-12-01T19:06:20;101145.00;;;4.68;95.57
48796;BME280;34607;48.520;-1.330;2022-12-01T19:08:47;101153.84;;;4.73;95.61
48796;BME280;34607;48.520;-1.330;2022-12-01T19:11:14;101149.25;;;4.67;95.26
48796;BME280;34607;48.520;-1.330;2022-12-01T19:13:42;101149.72;;;4.60;95.72
48796;BME280;34607;48.520;-1.330;2022-12-01T19:16:11;101146.38;;;4.61;96.01
48796;BME280;34607;48.520;-1.330;2022-12-01T19:18:40;101147.63;;;4.53;95.65
48796;BME280;34607;48.520;-1.330;2022-12-01T19:21:08;101149.31;;;4.53;96.19
48796;BME280;34607;48.520;-1.330;2022-12-01T19:23:37;101155.81;;;4.46;96.50
48796;BME280;34607;48.520;-1.330;2022-12-01T19:26:04;101146.97;;;4.41;96.92
48796;BME280;34607;48.520;-1.330;2022-12-01T19:28:33;101150.25;;;4.38;97.08
48796;BME280;34607;48.520;-1.330;2022-12-01T19:31:04;101157.75;;;4.35;97.05
48796;BME280;34607;48.520;-1.330;2022-12-01T19:33:31;101150.72;;;4.31;97.89
48796;BME280;34607;48.520;-1.330;2022-12-01T19:36:04;101141.19;;;4.28;98.05
48796;BME280;34607;48.520;-1.330;2022-12-01T19:38:31;101150.63;;;4.29;98.17
48796;BME280;34607;48.520;-1.330;2022-12-01T19:40:58;101096.72;;;3.97;97.86
48796;BME280;34607;48.520;-1.330;2022-12-01T19:43:26;101142.69;;;4.25;98.12
48796;BME280;34607;48.520;-1.330;2022-12-01T19:45:53;101152.88;;;4.23;98.16
48796;BME280;34607;48.520;-1.330;2022-12-01T19:48:20;101154.38;;;4.20;98.35
48796;BME280;34607;48.520;-1.330;2022-12-01T19:50:47;101150.94;;;4.19;98.30
48796;BME280;34607;48.520;-1.330;2022-12-01T19:53:16;101160.69;;;4.10;98.77
48796;BME280;34607;48.520;-1.330;2022-12-01T19:55:43;101159.47;;;4.03;99.02
48796;BME280;34607;48.520;-1.330;2022-12-01T19:58:10;101160.34;;;4.04;99.18
48796;BME280;34607;48.520;-1.330;2022-12-01T20:00:38;101160.06;;;3.99;99.30
48796;BME280;34607;48.520;-1.330;2022-12-01T20:03:05;101159.19;;;3.99;99.92
48796;BME280;34607;48.520;-1.330;2022-12-01T20:05:32;101128.75;;;3.73;99.92
48796;BME280;34607;48.520;-1.330;2022-12-01T20:08:00;101166.69;;;3.96;100.00
48796;BME280;34607;48.520;-1.330;2022-12-01T20:10:29;101161.44;;;3.92;100.00
48796;BME280;34607;48.520;-1.330;2022-12-01T20:12:56;101172.72;;;3.96;100.00
48796;BME280;34607;48.520;-1.330;2022-12-01T20:15:24;101173.59;;;3.97;100.00
48796;BME280;34607;48.520;-1.330;2022-12-01T20:17:52;101156.13;;;3.89;100.00
48796;BME280;34607;48.520;-1.330;2022-12-01T20:20:19;101174.84;;;4.03;100.00
48796;BME280;34607;48.520;-1.330;2022-12-01T20:22:46;101161.56;;;4.10;100.00
48796;BME280;34607;48.520;-1.330;2022-12-01T20:25:13;101168.09;;;4.20;100.00
48796;BME280;34607;48.520;-1.330;2022-12-01T20:27:42;101165.94;;;4.28;100.00
48796;BME280;34607;48.520;-1.330;2022-12-01T20:30:11;101160.88;;;4.29;99.93
48796;BME280;34607;48.520;-1.330;2022-12-01T20:32:38;101167.53;;;4.26;100.00
48796;BME280;34607;48.520;-1.330;2022-12-01T20:35:06;101167.44;;;4.24;100.00
48796;BME280;34607;48.520;-1.330;2022-12-01T20:37:34;101172.47;;;4.23;100.00
48796;BME280;34607;48.520;-1.330;2022-12-01T20:40:02;101168.69;;;4.16;100.00
48796;BME280;34607;48.520;-1.330;2022-12-01T20:42:29;101169.69;;;4.18;100.00
48796;BME280;34607;48.520;-1.330;2022-12-01T20:44:57;101168.78;;;4.18;100.00
48796;BME280;34607;48.520;-1.330;2022-12-01T20:47:24;101169.81;;;4.21;100.00
48796;BME280;34607;48.520;-1.330;2022-12-01T20:49:52;101168.88;;;4.19;100.00
48796;BME280;34607;48.520;-1.330;2022-12-01T20:52:19;101170.28;;;4.14;100.00
48796;BME280;34607;48.520;-1.330;2022-12-01T20:54:46;101164.91;;;4.09;100.00
48796;BME280;34607;48.520;-1.330;2022-12-01T20:57:13;101166.00;;;4.13;100.00
48796;BME280;34607;48.520;-1.330;2022-12-01T20:59:40;101159.44;;;4.18;100.00
48796;BME280;34607;48.520;-1.330;2022-12-01T21:02:09;101166.88;;;4.13;100.00
48796;BME280;34607;48.520;-1.330;2022-12-01T21:04:36;101169.34;;;4.12;100.00
48796;BME280;34607;48.520;-1.330;2022-12-01T21:07:03;101163.25;;;4.10;100.00
48796;BME280;34607;48.520;-1.330;2022-12-01T21:09:30;101158.34;;;4.15;100.00
48796;BME280;34607;48.520;-1.330;2022-12-01T21:11:58;101161.09;;;4.18;100.00
48796;BME280;34607;48.520;-1.330;2022-12-01T21:14:44;101160.41;;;4.20;100.00
48796;BME280;34607;48.520;-1.330;2022-12-01T21:17:24;101158.53;;;4.18;100.00
48796;BME280;34607;48.520;-1.330;2022-12-01T21:19:57;101155.44;;;4.23;100.00
48796;BME280;34607;48.520;-1.330;2022-12-01T21:22:27;101161.34;;;4.22;100.00
48796;BME280;34607;48.520;-1.330;2022-12-01T21:25:01;101163.13;;;4.23;100.00
48796;BME280;34607;48.520;-1.330;2022-12-01T21:27:29;101160.41;;;4.20;100.00
48796;BME280;34607;48.520;-1.330;2022-12-01T21:29:56;101155.44;;;4.23;100.00
48796;BME280;34607;48.520;-1.330;2022-12-01T21:32:28;101142.75;;;4.26;100.00
48796;BME280;34607;48.520;-1.330;2022-12-01T21:35:00;101145.03;;;4.37;100.00
48796;BME280;34607;48.520;-1.330;2022-12-01T21:37:31;101142.25;;;4.32;100.00
